KPAE/PAE METAR and TAF weather

Enter ICAO airport designator
Station Type Date Time Source
KPAE METAR 2022/05/24 11:53 UTC NOAA

KPAE 241153Z AUTO 05003KT 10SM CLR 09/07 A3014 RMK AO2 SLP208 T00940067 10100 20094 58005


Station Type Date Time Source
KPAE Decoded METAR 2022/05/24 11:53 UTC NOAA

EVERETT SNOHOMISH COUNTY, WA, United States (KPAE) 47-55N 122-17W 180M
May 24, 2022 - 07:53 AM EDT / 2022.05.24 1153 UTC
Wind: from the NE (050 degrees) at 3 MPH (3 KT):0
Visibility: 10 mile(s):0
Sky conditions: clear
Temperature: 48.9 F (9.4 C)
Dew Point: 44.1 F (6.7 C)
Relative Humidity: 83%
Pressure (altimeter): 30.14 in. Hg (1020 hPa)
Pressure tendency: 0.01 inches (0.5 hPa) lower than three hours ago
ob: KPAE 241153Z AUTO 05003KT 10SM CLR 09/07 A3014 RMK AO2 SLP208 T00940067 10100 20094 58005
cycle: 12

Station Type Date Time Source
KPAE TAF 2022/05/24 12:36 UTC NOAA

TAF KPAE 241134Z 2412/2512 VRB03KT P6SM SCT015 OVC200
FM241400 VRB03KT P6SM BKN015 OVC200
FM241800 20006KT P6SM BKN050 OVC200
FM251100 15008KT P6SM OVC015

Example: see airport list